Time;durP1;ratioP1;P1;durP2;ratioP2;P2;SDS_P1;SDS_P2;PMS_P1;PMS_P2;Temp;Humidity;BMP_temperature;BMP_pressure;BME280_temperature;BME280_humidity;BME280_pressure;Samples;Min_cycle;Max_cycle;Signal;HPM_P1;HPM_P2
2023/01/09 00:00:51;;;;;;;4.47;3.60;;;17.80;53.30;;;;;;4951796;28;20241;-84
2023/01/09 00:03:18;;;;;;;4.82;3.45;;;17.80;53.30;;;;;;4952439;28;20160;-84
2023/01/09 00:05:46;;;;;;;4.28;3.22;;;17.80;53.40;;;;;;4935762;28;20200;-85
2023/01/09 00:08:12;;;;;;;5.85;3.95;;;17.80;53.30;;;;;;4967274;28;20522;-86
2023/01/09 00:10:37;;;;;;;5.13;3.58;;;17.80;53.30;;;;;;4936399;28;20211;-85
2023/01/09 00:13:03;;;;;;;4.60;3.50;;;17.80;53.40;;;;;;4936318;28;20180;-85
2023/01/09 00:15:37;;;;;;;5.13;3.78;;;17.80;53.50;;;;;;4953286;28;20698;-85
2023/01/09 00:18:02;;;;;;;4.60;3.60;;;17.70;53.60;;;;;;4986197;28;20156;-85
2023/01/09 00:20:29;;;;;;;5.55;3.70;;;17.70;53.70;;;;;;4955122;28;20178;-84
2023/01/09 00:23:03;;;;;;;5.10;3.50;;;17.70;53.70;;;;;;4954035;28;20639;-85
2023/01/09 00:25:29;;;;;;;4.28;3.40;;;17.70;53.80;;;;;;4970763;28;20211;-85
2023/01/09 00:27:56;;;;;;;5.53;3.55;;;17.70;53.80;;;;;;4954529;28;20164;-85
2023/01/09 00:30:28;;;;;;;4.43;3.20;;;17.70;53.80;;;;;;4971231;28;20181;-85
2023/01/09 00:32:54;;;;;;;5.18;3.70;;;17.70;53.80;;;;;;4970206;28;20627;-86
2023/01/09 00:35:23;;;;;;;5.43;3.63;;;17.70;53.80;;;;;;4954643;28;20175;-85
2023/01/09 00:37:48;;;;;;;4.75;3.42;;;17.70;53.80;;;;;;4954322;28;20176;-86
2023/01/09 00:40:16;;;;;;;5.45;3.63;;;17.70;53.70;;;;;;4970569;28;20182;-85
2023/01/09 00:42:42;;;;;;;5.22;3.60;;;17.70;53.70;;;;;;4954552;28;20236;-84
2023/01/09 00:45:16;;;;;;;5.35;3.70;;;17.70;53.80;;;;;;4953683;28;20222;-85
2023/01/09 00:47:44;;;;;;;4.45;3.50;;;17.70;53.80;;;;;;4954815;28;20178;-85
2023/01/09 00:50:16;;;;;;;4.97;3.80;;;17.60;53.90;;;;;;4953917;28;20616;-85
2023/01/09 00:52:42;;;;;;;4.22;3.40;;;17.60;53.80;;;;;;4949924;28;20188;-85
2023/01/09 00:55:09;;;;;;;5.45;3.40;;;17.70;53.80;;;;;;4950331;28;20184;-85
2023/01/09 00:57:34;;;;;;;4.70;3.53;;;17.70;53.70;;;;;;4927306;29;20642;-85
2023/01/09 01:00:00;;;;;;;4.40;3.40;;;17.70;53.90;;;;;;4927486;29;20200;-86
2023/01/09 01:02:26;;;;;;;5.57;3.67;;;17.70;53.80;;;;;;4928426;29;20545;-85
2023/01/09 01:07:39;;;;;;;4.32;3.20;;;17.60;53.90;;;;;;4933312;29;20229;-85
2023/01/09 01:10:11;;;;;;;5.20;3.70;;;17.60;53.80;;;;;;4931297;29;20158;-85
2023/01/09 01:12:39;;;;;;;4.70;3.70;;;17.70;54.00;;;;;;4932089;29;20193;-85
2023/01/09 01:15:06;;;;;;;4.93;3.30;;;17.60;54.00;;;;;;4931282;29;20707;-85
2023/01/09 01:17:35;;;;;;;4.78;3.45;;;17.60;54.00;;;;;;4931683;29;20186;-85
2023/01/09 01:20:01;;;;;;;5.15;3.70;;;17.60;54.00;;;;;;4931905;29;20189;-85
2023/01/09 01:22:31;;;;;;;4.53;3.45;;;17.60;54.00;;;;;;4931091;29;20629;-85
2023/01/09 01:24:57;;;;;;;4.35;3.40;;;17.60;54.10;;;;;;4931549;29;20205;-84
2023/01/09 01:27:23;;;;;;;4.82;3.58;;;17.60;54.10;;;;;;4932019;28;20210;-85
2023/01/09 01:29:51;;;;;;;4.82;3.40;;;17.60;54.10;;;;;;4970811;28;20212;-85
2023/01/09 01:32:25;;;;;;;4.75;3.55;;;17.60;54.10;;;;;;4970269;28;20157;-85
2023/01/09 01:34:59;;;;;;;4.40;3.30;;;17.60;54.00;;;;;;4953263;28;20173;-85
2023/01/09 01:37:26;;;;;;;3.97;3.53;;;17.60;54.10;;;;;;4986893;28;20219;-85
2023/01/09 01:39:52;;;;;;;5.35;3.70;;;17.60;54.10;;;;;;4958623;28;20176;-85
2023/01/09 01:42:18;;;;;;;4.70;3.40;;;17.60;54.20;;;;;;4973941;28;20353;-85
2023/01/09 01:45:22;;;;;;;5.15;3.50;;;17.60;54.10;;;;;;4957804;28;20646;-84
2023/01/09 01:48:00;;;;;;;4.72;3.13;;;17.60;54.20;;;;;;5007008;28;20697;-84
2023/01/09 01:50:42;;;;;;;4.65;3.20;;;17.50;54.20;;;;;;4958327;28;20172;-85
2023/01/09 01:53:09;;;;;;;5.53;3.67;;;17.50;54.20;;;;;;4973981;28;20164;-85
2023/01/09 01:55:38;;;;;;;4.53;3.42;;;17.60;54.30;;;;;;4974455;28;20183;-86
2023/01/09 01:58:08;;;;;;;4.80;3.55;;;17.50;54.40;;;;;;4958029;28;20178;-85
2023/01/09 02:00:37;;;;;;;4.93;3.40;;;17.50;54.40;;;;;;4957390;28;20179;-85
2023/01/09 02:03:04;;;;;;;4.68;3.50;;;17.50;54.40;;;;;;4957466;28;20176;-85
2023/01/09 02:05:39;;;;;;;5.40;3.58;;;17.50;54.40;;;;;;4957839;28;20227;-85
2023/01/09 02:08:05;;;;;;;4.18;3.15;;;17.50;54.40;;;;;;4973631;28;20168;-85
2023/01/09 02:10:31;;;;;;;4.47;3.28;;;17.50;54.40;;;;;;4957435;28;20627;-85
2023/01/09 02:13:02;;;;;;;4.78;3.45;;;17.50;54.40;;;;;;4958114;28;20174;-85
2023/01/09 02:15:30;;;;;;;4.22;3.10;;;17.50;54.30;;;;;;5006651;28;20251;-85
2023/01/09 02:18:21;;;;;;;4.88;3.65;;;17.50;54.40;;;;;;4958602;28;20247;-85
2023/01/09 02:20:56;;;;;;;4.43;3.38;;;17.50;54.40;;;;;;4989499;28;20168;-85
2023/01/09 02:23:41;;;;;;;4.18;3.33;;;17.50;54.50;;;;;;4974816;28;20162;-85
2023/01/09 02:26:19;;;;;;;5.15;3.50;;;17.50;54.50;;;;;;4989641;28;20204;-85
2023/01/09 02:29:11;;;;;;;3.75;2.92;;;17.50;54.60;;;;;;4989741;28;20223;-85
2023/01/09 02:31:48;;;;;;;4.13;3.00;;;17.50;54.60;;;;;;4989707;28;20153;-85
2023/01/09 02:34:52;;;;;;;4.25;3.15;;;17.40;54.60;;;;;;4973248;28;20168;-84
2023/01/09 02:37:43;;;;;;;5.07;3.78;;;17.50;54.70;;;;;;5006886;28;20231;-86
2023/01/09 02:40:38;;;;;;;5.07;3.42;;;17.50;54.50;;;;;;4973070;28;20196;-86
2023/01/09 02:43:04;;;;;;;4.60;3.45;;;17.50;54.60;;;;;;4988743;28;20647;-85
2023/01/09 02:45:31;;;;;;;4.65;3.28;;;17.40;54.60;;;;;;4972639;28;20662;-85
2023/01/09 02:47:58;;;;;;;4.85;3.40;;;17.50;54.50;;;;;;4972521;28;20175;-85
2023/01/09 02:50:28;;;;;;;5.07;3.53;;;17.40;54.60;;;;;;4972601;28;20176;-86
2023/01/09 02:53:08;;;;;;;4.85;3.67;;;17.50;54.70;;;;;;4973118;28;20239;-85
2023/01/09 02:55:51;;;;;;;3.88;3.05;;;17.40;54.60;;;;;;4973116;28;20584;-86
2023/01/09 02:58:59;;;;;;;4.88;3.20;;;17.50;54.80;;;;;;4973709;28;20152;-86
2023/01/09 03:01:45;;;;;;;4.90;3.70;;;17.40;54.60;;;;;;4988321;28;20180;-85
2023/01/09 03:04:25;;;;;;;4.20;3.03;;;17.40;54.60;;;;;;4972237;28;20183;-85
2023/01/09 03:07:30;;;;;;;3.83;3.17;;;17.40;54.60;;;;;;4956658;28;20164;-86
2023/01/09 03:10:11;;;;;;;4.45;3.13;;;17.50;54.80;;;;;;4973853;28;20171;-86
2023/01/09 03:12:42;;;;;;;4.70;3.47;;;17.50;54.60;;;;;;4972636;28;20240;-85
2023/01/09 03:15:08;;;;;;;4.28;3.30;;;17.50;54.70;;;;;;4971658;28;20231;-85
2023/01/09 03:17:47;;;;;;;4.55;3.38;;;17.50;54.60;;;;;;4972020;28;20183;-85
2023/01/09 03:20:18;;;;;;;4.65;3.70;;;17.50;54.80;;;;;;4973505;28;20622;-85
2023/01/09 03:22:55;;;;;;;4.97;3.63;;;17.50;54.80;;;;;;4971054;28;20178;-85
2023/01/09 03:25:21;;;;;;;4.68;3.47;;;17.40;54.70;;;;;;4956193;28;20218;-85
2023/01/09 03:27:48;;;;;;;4.15;3.25;;;17.40;54.70;;;;;;4971795;28;20607;-85
2023/01/09 03:30:14;;;;;;;5.00;3.28;;;17.40;54.60;;;;;;4956295;28;20518;-85
2023/01/09 03:32:41;;;;;;;4.32;3.40;;;17.50;54.90;;;;;;4972601;28;20574;-85
2023/01/09 03:35:10;;;;;;;4.10;3.30;;;17.50;54.80;;;;;;4972548;28;20618;-85
2023/01/09 03:37:35;;;;;;;4.25;3.22;;;17.50;54.90;;;;;;4958700;28;20202;-85
2023/01/09 03:40:01;;;;;;;3.83;3.20;;;17.40;54.70;;;;;;4915869;29;20190;-85
2023/01/09 03:42:28;;;;;;;4.07;3.30;;;17.40;54.90;;;;;;4932068;29;20201;-85
2023/01/09 03:44:55;;;;;;;4.40;3.28;;;17.40;54.80;;;;;;4916368;29;20214;-85
2023/01/09 03:47:21;;;;;;;4.07;3.08;;;17.40;54.90;;;;;;4901358;29;20173;-85
2023/01/09 03:49:48;;;;;;;4.20;3.30;;;17.40;54.80;;;;;;4902229;29;20178;-85
2023/01/09 03:52:14;;;;;;;4.28;3.05;;;17.50;54.90;;;;;;4932214;29;20162;-85
2023/01/09 03:54:41;;;;;;;4.07;3.15;;;17.40;54.70;;;;;;4913671;29;20193;-86
2023/01/09 03:57:16;;;;;;;4.53;3.38;;;17.40;54.80;;;;;;4914408;29;20222;-84
2023/01/09 03:59:41;;;;;;;4.00;3.13;;;17.40;54.90;;;;;;4929018;29;20188;-85
2023/01/09 04:02:07;;;;;;;4.03;3.15;;;17.40;55.00;;;;;;4899046;29;20178;-85
2023/01/09 04:04:33;;;;;;;4.53;3.28;;;17.30;55.00;;;;;;4913593;29;20198;-85
2023/01/09 04:06:59;;;;;;;4.18;3.47;;;17.40;55.00;;;;;;4897671;29;20170;-84
2023/01/09 04:09:27;;;;;;;4.38;3.50;;;17.30;55.00;;;;;;4913996;29;20424;-85
2023/01/09 04:11:53;;;;;;;4.43;3.30;;;17.40;55.10;;;;;;4964572;28;20179;-84
2023/01/09 04:14:19;;;;;;;3.97;3.08;;;17.40;55.00;;;;;;4971426;28;20219;-85
2023/01/09 04:16:46;;;;;;;5.47;3.45;;;17.30;55.10;;;;;;4972001;28;20157;-85
2023/01/09 04:19:14;;;;;;;4.75;3.50;;;17.30;55.00;;;;;;4928824;29;20293;-87
2023/01/09 04:21:40;;;;;;;4.75;3.22;;;17.30;55.10;;;;;;4945417;29;20210;-85
2023/01/09 04:24:09;;;;;;;4.28;3.33;;;17.40;55.20;;;;;;4929201;29;20335;-85
2023/01/09 04:26:38;;;;;;;4.75;3.22;;;17.40;55.10;;;;;;4929319;29;20169;-85
2023/01/09 04:29:12;;;;;;;4.35;3.33;;;17.40;55.20;;;;;;4929147;29;20186;-85
2023/01/09 04:31:40;;;;;;;5.00;3.20;;;17.40;55.20;;;;;;4928904;29;20173;-85
2023/01/09 04:34:06;;;;;;;3.80;3.13;;;17.40;55.20;;;;;;4944522;29;20261;-84
2023/01/09 04:36:34;;;;;;;3.80;3.33;;;17.40;55.10;;;;;;4944623;29;20163;-85
2023/01/09 04:39:00;;;;;;;4.32;3.08;;;17.30;55.20;;;;;;4932863;29;20178;-85
2023/01/09 04:44:10;;;;;;;4.18;3.28;;;17.30;55.30;;;;;;4948444;29;20274;-85
2023/01/09 04:46:36;;;;;;;4.25;3.20;;;17.40;55.20;;;;;;4932883;29;20257;-85
2023/01/09 04:49:03;;;;;;;5.32;3.40;;;17.30;55.20;;;;;;4934837;28;20304;-85
2023/01/09 04:51:29;;;;;;;4.38;3.33;;;17.30;55.10;;;;;;4976244;28;20156;-85
2023/01/09 04:53:56;;;;;;;4.32;3.13;;;17.30;55.30;;;;;;4959100;28;20311;-85
2023/01/09 04:56:23;;;;;;;4.75;3.35;;;17.30;55.30;;;;;;4974660;28;20243;-84
2023/01/09 04:58:50;;;;;;;4.45;3.45;;;17.30;55.90;;;;;;4959034;28;20172;-85
2023/01/09 05:01:16;;;;;;;5.05;3.28;;;17.30;55.20;;;;;;4974397;28;20148;-84
2023/01/09 05:03:46;;;;;;;5.05;3.33;;;17.30;55.20;;;;;;4959251;28;20198;-85
2023/01/09 05:06:14;;;;;;;3.55;2.90;;;17.30;55.30;;;;;;4991396;28;20247;-85
2023/01/09 05:08:40;;;;;;;4.40;3.17;;;17.20;55.20;;;;;;4975312;28;20157;-85
2023/01/09 05:11:05;;;;;;;3.80;2.97;;;17.30;55.30;;;;;;4958017;28;20168;-85
2023/01/09 05:13:32;;;;;;;4.80;3.30;;;17.20;55.30;;;;;;4974848;28;20156;-85
2023/01/09 05:15:58;;;;;;;3.97;3.08;;;17.30;55.40;;;;;;4990965;28;20588;-85
2023/01/09 05:18:25;;;;;;;4.95;3.42;;;17.30;55.30;;;;;;4974201;28;20189;-85
2023/01/09 05:20:53;;;;;;;4.55;3.20;;;17.30;55.30;;;;;;4959058;28;20175;-85
2023/01/09 05:23:19;;;;;;;3.90;3.10;;;17.30;55.50;;;;;;4975100;28;20542;-85
2023/01/09 05:25:45;;;;;;;3.67;3.13;;;17.30;55.30;;;;;;4990291;28;20188;-85
2023/01/09 05:28:11;;;;;;;4.00;3.13;;;17.30;55.30;;;;;;4974204;28;20160;-84
2023/01/09 05:30:36;;;;;;;4.45;3.20;;;17.30;55.20;;;;;;4973989;28;20538;-84
2023/01/09 05:33:04;;;;;;;5.15;3.42;;;17.30;55.50;;;;;;4957839;28;20171;-84
2023/01/09 05:35:31;;;;;;;4.47;3.38;;;17.30;55.40;;;;;;4974175;28;20200;-85
2023/01/09 05:38:00;;;;;;;4.13;3.03;;;17.30;55.30;;;;;;4958627;28;20173;-85
2023/01/09 05:40:27;;;;;;;4.30;3.38;;;17.30;55.40;;;;;;5008109;28;20658;-84
2023/01/09 05:42:54;;;;;;;4.07;2.97;;;17.30;55.30;;;;;;4958129;28;20258;-86
2023/01/09 05:45:21;;;;;;;4.05;3.00;;;17.20;55.30;;;;;;4957584;28;20214;-84
2023/01/09 05:47:51;;;;;;;4.38;3.10;;;17.30;55.40;;;;;;4973856;28;20172;-85
2023/01/09 05:50:20;;;;;;;4.72;3.30;;;17.30;55.50;;;;;;4957458;28;20168;-85
2023/01/09 05:52:46;;;;;;;4.55;3.35;;;17.30;55.50;;;;;;4973977;28;20630;-85
2023/01/09 05:55:14;;;;;;;4.30;3.20;;;17.30;55.40;;;;;;4957441;28;20168;-85
2023/01/09 05:57:40;;;;;;;3.92;2.90;;;17.30;55.30;;;;;;4974094;28;20184;-84
2023/01/09 06:00:09;;;;;;;4.55;3.47;;;17.20;55.40;;;;;;4957530;28;20192;-85
2023/01/09 06:02:35;;;;;;;4.18;3.10;;;17.30;55.50;;;;;;4957537;28;20168;-85
2023/01/09 06:05:03;;;;;;;4.30;2.97;;;17.30;55.60;;;;;;4973245;28;20206;-86
2023/01/09 06:07:30;;;;;;;4.00;3.25;;;17.30;55.50;;;;;;4957347;28;20175;-86
2023/01/09 06:09:57;;;;;;;4.22;3.28;;;17.30;55.50;;;;;;4957706;28;20164;-85
2023/01/09 06:12:23;;;;;;;3.83;2.92;;;17.30;55.50;;;;;;4957649;28;20548;-85
2023/01/09 06:14:48;;;;;;;4.18;3.10;;;17.30;55.50;;;;;;4972901;28;20282;-85
2023/01/09 06:17:29;;;;;;;4.38;3.08;;;17.30;55.60;;;;;;4957511;28;20172;-85
2023/01/09 06:19:54;;;;;;;3.75;3.05;;;17.20;55.50;;;;;;4955786;28;20250;-85
2023/01/09 06:22:20;;;;;;;4.18;3.10;;;17.30;55.40;;;;;;4954368;28;20188;-86
2023/01/09 06:24:47;;;;;;;3.90;3.10;;;17.30;55.60;;;;;;4954884;28;20192;-86
2023/01/09 06:27:18;;;;;;;4.82;3.47;;;17.30;55.30;;;;;;4971259;28;20518;-84
2023/01/09 06:29:46;;;;;;;4.82;3.20;;;17.30;55.40;;;;;;4972285;28;20172;-85
2023/01/09 06:46:28;;;;;;;4.18;2.97;;;17.30;55.30;;;;;;5007438;28;20218;-85
2023/01/09 06:48:51;;;;;;;4.18;2.97;;;17.30;55.40;;;;;;4995423;28;20207;-85
2023/01/09 06:51:20;;;;;;;3.72;3.00;;;17.40;55.20;;;;;;4934769;29;20182;-85
2023/01/09 06:53:46;;;;;;;4.55;3.15;;;17.30;55.40;;;;;;4928595;29;20187;-85
2023/01/09 06:56:26;;;;;;;5.18;2.97;;;17.30;55.60;;;;;;4910357;29;20183;-85
2023/01/09 06:58:54;;;;;;;3.97;2.80;;;17.30;55.70;;;;;;4855592;29;20197;-85
2023/01/09 07:01:20;;;;;;;4.35;3.05;;;17.30;55.30;;;;;;4867513;29;20196;-86
2023/01/09 07:03:47;;;;;;;4.60;3.17;;;17.40;55.40;;;;;;4849881;29;20188;-87
2023/01/09 07:06:18;;;;;;;3.53;2.90;;;17.30;56.20;;;;;;4882660;29;20219;-84
2023/01/09 07:08:57;;;;;;;4.07;3.10;;;17.30;55.70;;;;;;4873506;29;20181;-84
2023/01/09 07:11:59;;;;;;;4.15;2.97;;;17.30;55.70;;;;;;4857292;29;20188;-83
2023/01/09 07:14:25;;;;;;;4.28;2.90;;;17.30;55.60;;;;;;4781708;30;20239;-84
2023/01/09 07:17:12;;;;;;;4.07;3.20;;;17.40;55.60;;;;;;4751495;30;20211;-84
2023/01/09 07:19:53;;;;;;;5.25;3.15;;;17.30;55.70;;;;;;4752595;30;20231;-84
2023/01/09 07:22:28;;;;;;;4.82;3.42;;;17.30;55.70;;;;;;4745907;30;20228;-85
2023/01/09 07:25:07;;;;;;;5.80;3.15;;;17.40;55.70;;;;;;4744515;30;20225;-84
2023/01/09 07:27:47;;;;;;;4.20;3.28;;;17.40;55.70;;;;;;4757330;30;20224;-84
2023/01/09 07:30:28;;;;;;;4.05;2.97;;;17.40;55.80;;;;;;4742159;30;20197;-84
2023/01/09 07:33:14;;;;;;;4.13;3.00;;;17.40;55.80;;;;;;4759910;30;20191;-83
2023/01/09 07:35:42;;;;;;;4.20;2.97;;;17.50;55.60;;;;;;4768778;30;20192;-85
2023/01/09 07:38:17;;;;;;;4.53;3.15;;;17.60;55.40;;;;;;4781847;30;20236;-84
2023/01/09 07:40:47;;;;;;;4.75;3.05;;;17.60;55.40;;;;;;4799913;30;20202;-85
2023/01/09 07:43:26;;;;;;;4.53;2.83;;;17.60;55.30;;;;;;4787129;30;20241;-85
2023/01/09 07:45:56;;;;;;;3.85;2.92;;;17.60;55.20;;;;;;4868919;29;20706;-86
2023/01/09 07:48:25;;;;;;;5.25;2.95;;;17.60;54.90;;;;;;4893007;29;20227;-84
2023/01/09 07:51:20;;;;;;;3.28;2.60;;;17.70;55.10;;;;;;4879350;29;20216;-83
2023/01/09 07:53:45;;;;;;;4.28;3.10;;;17.70;54.90;;;;;;4858148;29;20220;-83
2023/01/09 07:56:23;;;;;;;3.92;2.85;;;17.70;54.90;;;;;;4882698;29;20216;-83
2023/01/09 07:59:01;;;;;;;4.22;3.10;;;17.70;54.80;;;;;;4861661;29;20199;-82
2023/01/09 08:01:41;;;;;;;4.30;3.00;;;17.80;55.00;;;;;;4880272;29;20247;-84
2023/01/09 08:04:19;;;;;;;3.78;3.00;;;17.70;54.80;;;;;;4895808;29;20199;-84
2023/01/09 08:07:19;;;;;;;3.35;2.67;;;17.80;55.00;;;;;;4905562;29;20196;-82
2023/01/09 08:09:50;;;;;;;3.92;2.90;;;17.90;55.50;;;;;;4903539;29;20184;-83
2023/01/09 08:12:19;;;;;;;3.95;2.72;;;17.80;54.80;;;;;;4887881;29;20236;-83
2023/01/09 08:18:05;;;;;;;6.60;2.97;;;17.80;54.90;;;;;;4881212;29;20199;-84
2023/01/09 08:20:31;;;;;;;4.25;2.70;;;17.90;55.20;;;;;;4887496;29;20191;-83
2023/01/09 08:22:57;;;;;;;4.70;2.65;;;17.80;54.80;;;;;;4887769;29;20292;-83
2023/01/09 08:25:39;;;;;;;4.15;2.92;;;17.90;54.80;;;;;;4871758;29;20212;-83
2023/01/09 08:28:10;;;;;;;3.90;2.90;;;17.90;54.60;;;;;;4885747;29;20187;-84
2023/01/09 08:30:44;;;;;;;3.50;2.70;;;17.90;54.70;;;;;;4872604;29;20192;-83
2023/01/09 08:33:11;;;;;;;3.15;2.70;;;17.90;54.70;;;;;;4899995;29;20245;-83
2023/01/09 08:35:41;;;;;;;3.33;2.72;;;18.00;54.70;;;;;;4907954;29;20193;-83
2023/01/09 08:38:12;;;;;;;3.03;2.50;;;18.00;54.90;;;;;;4911689;29;20182;-82
2023/01/09 08:40:43;;;;;;;4.05;2.72;;;17.90;55.00;;;;;;4894745;29;20197;-84
2023/01/09 08:49:25;;;;;;;;;;;;;;;;;;;;;
2023/01/09 08:51:57;;;;;;;4.10;2.58;;;18.00;54.60;;;;;;4852522;29;20252;-83
2023/01/09 08:54:48;;;;;;;3.58;2.70;;;18.00;54.60;;;;;;4870383;29;20193;-83
2023/01/09 08:57:34;;;;;;;2.80;2.20;;;18.00;54.60;;;;;;4862706;29;20224;-83
2023/01/09 09:00:47;;;;;;;3.88;2.50;;;18.00;54.80;;;;;;4852143;29;20193;-82
2023/01/09 09:03:40;;;;;;;6.43;2.60;;;17.90;54.80;;;;;;4833627;29;20725;-82
2023/01/09 09:06:07;;;;;;;3.30;2.63;;;18.00;54.60;;;;;;4830833;29;20237;-81
2023/01/09 09:09:07;;;;;;;3.78;2.30;;;18.00;54.80;;;;;;4831089;29;20190;-82
2023/01/09 09:11:34;;;;;;;3.50;2.40;;;18.00;54.60;;;;;;4815394;29;20190;-81
2023/01/09 09:14:00;;;;;;;4.70;2.60;;;18.10;54.80;;;;;;4867423;29;20188;-82
2023/01/09 09:16:42;;;;;;;3.47;2.40;;;18.10;54.80;;;;;;4858252;29;20191;-81
2023/01/09 09:19:09;;;;;;;2.80;2.30;;;18.10;54.90;;;;;;4863685;29;20571;-81
2023/01/09 09:22:45;;;;;;;4.53;2.30;;;18.10;55.00;;;;;;4862006;29;20190;-82
2023/01/09 09:25:07;;;;;;;4.03;2.10;;;18.10;54.90;;;;;;4896548;29;20207;-82
2023/01/09 09:27:59;;;;;;;3.03;2.20;;;18.10;55.00;;;;;;4890005;29;20199;-82
2023/01/09 09:30:31;;;;;;;5.40;2.30;;;18.10;55.10;;;;;;4904303;29;20287;-81
2023/01/09 09:32:57;;;;;;;3.95;2.25;;;18.10;55.20;;;;;;4854298;29;20192;-83
2023/01/09 09:35:35;;;;;;;6.13;2.40;;;18.10;55.10;;;;;;4855647;29;20219;-82
2023/01/09 09:38:06;;;;;;;3.47;2.53;;;18.10;55.20;;;;;;4870347;29;20192;-82
2023/01/09 09:40:54;;;;;;;7.57;2.22;;;18.10;55.10;;;;;;4881235;29;20195;-82
2023/01/09 09:46:38;;;;;;;3.03;2.10;;;18.10;55.20;;;;;;4902531;29;20215;-83
2023/01/09 09:49:18;;;;;;;3.22;2.25;;;18.10;55.30;;;;;;4870075;29;20195;-82
2023/01/09 09:52:09;;;;;;;7.88;2.50;;;18.10;55.40;;;;;;4847438;29;20281;-83
2023/01/09 09:58:26;;;;;;;7.90;2.38;;;18.10;55.60;;;;;;4768263;30;20192;-84
2023/01/09 10:04:38;;;;;;;7.43;2.45;;;18.10;55.70;;;;;;4729522;30;20186;-83
2023/01/09 10:11:03;;;;;;;5.65;2.58;;;18.10;55.70;;;;;;4606148;31;20195;-84
2023/01/09 10:28:32;;;;;;;6.38;2.05;;;18.20;55.80;;;;;;4461312;32;20201;-82
2023/01/09 10:31:17;;;;;;;4.22;2.20;;;18.20;55.70;;;;;;4524460;31;20335;-84
2023/01/09 10:33:59;;;;;;;6.75;2.25;;;18.20;55.70;;;;;;4526458;31;20197;-83
2023/01/09 10:37:04;;;;;;;4.55;2.10;;;18.10;55.70;;;;;;4530077;31;20256;-83
2023/01/09 10:40:10;;;;;;;3.97;2.22;;;18.30;55.80;;;;;;4575297;31;20289;-84
2023/01/09 10:49:31;;;;;;;4.43;2.28;;;18.20;55.60;;;;;;4709557;30;20194;-83
2023/01/09 10:52:13;;;;;;;3.08;1.90;;;18.20;55.50;;;;;;4746735;30;20217;-84
2023/01/09 10:55:18;;;;;;;4.22;1.90;;;18.20;55.50;;;;;;4744958;30;20223;-84
2023/01/09 10:57:59;;;;;;;4.63;2.38;;;18.20;55.40;;;;;;4766064;30;20195;-84
2023/01/09 11:00:45;;;;;;;4.85;2.38;;;18.20;55.50;;;;;;4792391;30;20191;-84
2023/01/09 11:03:20;;;;;;;2.53;1.90;;;18.20;55.50;;;;;;4780252;30;20683;-84
2023/01/09 11:05:51;;;;;;;2.30;2.10;;;18.30;55.70;;;;;;4784654;29;20214;-84
2023/01/09 11:08:26;;;;;;;2.38;2.00;;;18.20;55.50;;;;;;4763458;30;20246;-85
2023/01/09 11:11:06;;;;;;;3.45;2.20;;;18.20;55.50;;;;;;4779513;30;20263;-86
2023/01/09 11:13:45;;;;;;;4.63;1.98;;;18.20;55.30;;;;;;4789113;29;20214;-86
2023/01/09 11:16:16;;;;;;;2.28;2.00;;;18.20;55.40;;;;;;4796620;29;20283;-86
2023/01/09 11:18:58;;;;;;;3.30;2.10;;;18.20;55.20;;;;;;4760972;30;20199;-85
2023/01/09 11:21:34;;;;;;;3.40;1.98;;;18.20;55.40;;;;;;4777238;30;20200;-85
2023/01/09 11:24:27;;;;;;;2.70;1.92;;;18.20;55.30;;;;;;4755595;30;20196;-85
2023/01/09 11:27:22;;;;;;;3.50;2.03;;;18.20;55.50;;;;;;4792111;29;20255;-85
2023/01/09 11:30:13;;;;;;;2.85;1.83;;;18.10;55.60;;;;;;4809139;29;20193;-85
2023/01/09 11:32:43;;;;;;;3.35;2.20;;;18.20;55.50;;;;;;4846446;29;20697;-85
2023/01/09 11:35:34;;;;;;;4.47;2.05;;;18.20;55.50;;;;;;4845917;29;20193;-87
2023/01/09 11:38:17;;;;;;;3.00;1.92;;;18.20;55.50;;;;;;4811007;29;20288;-85
2023/01/09 11:40:49;;;;;;;2.40;2.00;;;18.20;55.60;;;;;;4827262;29;20182;-85
2023/01/09 11:43:24;;;;;;;2.40;1.70;;;18.20;55.60;;;;;;4828227;29;20194;-84
2023/01/09 11:45:55;;;;;;;2.92;2.08;;;18.20;55.50;;;;;;4757365;30;20304;-85
2023/01/09 11:49:01;;;;;;;3.15;2.10;;;18.20;55.40;;;;;;4755977;30;20250;-84
2023/01/09 11:51:30;;;;;;;4.22;1.85;;;18.20;55.40;;;;;;4762983;30;20214;-85
2023/01/09 11:54:08;;;;;;;2.20;1.90;;;18.20;55.40;;;;;;4771993;30;20192;-84
2023/01/09 11:56:35;;;;;;;2.92;1.95;;;18.20;55.40;;;;;;4787971;30;20313;-84
2023/01/09 11:59:01;;;;;;;2.13;1.60;;;18.20;55.40;;;;;;4773770;30;20203;-83
2023/01/09 12:01:44;;;;;;;2.00;1.80;;;18.30;55.30;;;;;;4794373;29;20195;-83
2023/01/09 12:04:38;;;;;;;1.85;1.60;;;18.20;55.40;;;;;;4814834;29;20284;-82
2023/01/09 12:07:21;;;;;;;2.45;1.70;;;18.20;55.30;;;;;;4825318;29;20226;-85
2023/01/09 12:10:02;;;;;;;1.92;1.70;;;18.20;55.30;;;;;;4851381;29;20192;-84
2023/01/09 12:12:38;;;;;;;2.00;1.75;;;18.20;55.50;;;;;;4837434;29;20389;-83
2023/01/09 12:15:24;;;;;;;2.25;1.67;;;18.20;55.50;;;;;;4856211;29;20253;-85
2023/01/09 12:18:14;;;;;;;2.42;1.77;;;18.20;55.50;;;;;;4875037;29;20186;-84
2023/01/09 12:21:03;;;;;;;2.67;1.63;;;18.20;55.40;;;;;;4875371;29;20190;-84
2023/01/09 12:23:54;;;;;;;2.90;1.73;;;18.20;55.60;;;;;;4886409;29;20186;-84
2023/01/09 12:26:24;;;;;;;1.85;1.58;;;18.20;55.40;;;;;;4895197;29;20213;-84
2023/01/09 12:29:12;;;;;;;2.08;1.70;;;18.20;55.20;;;;;;4922579;29;20556;-84
2023/01/09 12:32:18;;;;;;;2.42;1.38;;;18.30;55.30;;;;;;4928128;29;20157;-84
2023/01/09 12:35:06;;;;;;;2.78;1.70;;;18.30;55.30;;;;;;4934351;29;20185;-85
2023/01/09 12:37:53;;;;;;;1.60;1.48;;;18.20;55.50;;;;;;4941948;29;20166;-84
2023/01/09 12:40:36;;;;;;;1.98;1.65;;;18.30;55.40;;;;;;4929967;29;20211;-85
2023/01/09 12:43:23;;;;;;;2.90;1.77;;;18.20;55.40;;;;;;4979491;28;20226;-85
2023/01/09 12:46:13;;;;;;;1.88;1.63;;;18.20;55.50;;;;;;4982381;28;20187;-84
2023/01/09 12:49:13;;;;;;;2.75;1.75;;;18.20;55.40;;;;;;5000829;28;20167;-85
2023/01/09 12:51:44;;;;;;;2.53;1.85;;;18.30;55.50;;;;;;5014751;28;20609;-84
2023/01/09 12:54:15;;;;;;;2.13;1.42;;;18.30;55.60;;;;;;4996925;28;20156;-84
2023/01/09 12:56:46;;;;;;;3.55;1.80;;;18.30;55.50;;;;;;4983208;28;20163;-85
2023/01/09 12:59:33;;;;;;;1.85;1.50;;;18.30;55.30;;;;;;4983084;28;20175;-84
2023/01/09 13:02:11;;;;;;;2.92;1.67;;;18.20;55.40;;;;;;4969363;28;20164;-84
2023/01/09 13:04:43;;;;;;;1.77;1.52;;;18.30;55.50;;;;;;4968781;28;20159;-84
2023/01/09 13:07:15;;;;;;;2.03;1.60;;;18.30;55.60;;;;;;4967899;28;20160;-84
2023/01/09 13:10:13;;;;;;;2.22;1.70;;;18.20;55.60;;;;;;4967198;28;20160;-85
2023/01/09 13:12:39;;;;;;;2.03;1.55;;;18.20;55.50;;;;;;4998772;28;20199;-85
2023/01/09 13:15:06;;;;;;;2.20;1.60;;;18.30;55.70;;;;;;4982587;28;20257;-84
2023/01/09 13:17:41;;;;;;;2.13;1.67;;;18.20;55.40;;;;;;4966698;28;20760;-84
2023/01/09 13:20:20;;;;;;;2.35;1.58;;;18.30;55.70;;;;;;4984077;28;20178;-84
2023/01/09 13:22:49;;;;;;;2.67;1.70;;;18.30;55.40;;;;;;4985262;28;20166;-85
2023/01/09 13:25:42;;;;;;;2.00;1.80;;;18.30;55.70;;;;;;4986971;28;20650;-86
2023/01/09 13:28:33;;;;;;;2.05;1.42;;;18.30;55.70;;;;;;4982116;28;20188;-85
2023/01/09 13:31:26;;;;;;;1.88;1.45;;;18.30;55.70;;;;;;4952204;28;20161;-83
2023/01/09 13:33:57;;;;;;;2.47;1.80;;;18.30;55.70;;;;;;4967470;28;20244;-86
2023/01/09 13:36:40;;;;;;;2.13;1.60;;;18.30;55.60;;;;;;4908662;29;20192;-85
2023/01/09 13:39:07;;;;;;;1.85;1.60;;;18.30;55.40;;;;;;4873869;29;20675;-84
2023/01/09 13:44:24;;;;;;;4.03;1.60;;;18.40;55.20;;;;;;4875671;29;20184;-86
2023/01/09 13:46:59;;;;;;;4.05;1.67;;;18.30;55.50;;;;;;4874919;29;20284;-85
2023/01/09 13:50:00;;;;;;;2.15;1.60;;;18.30;55.40;;;;;;4877357;29;20190;-86
2023/01/09 13:52:36;;;;;;;6.50;1.70;;;18.30;55.30;;;;;;4888358;29;20184;-85
2023/01/09 13:55:27;;;;;;;3.00;1.50;;;18.30;55.30;;;;;;4834530;29;20246;-83
2023/01/09 13:58:36;;;;;;;3.70;1.63;;;18.40;55.40;;;;;;4795974;30;20191;-85
2023/01/09 14:01:48;;;;;;;2.65;1.52;;;18.40;55.20;;;;;;4775150;30;20200;-84
2023/01/09 14:04:26;;;;;;;2.75;1.58;;;18.40;55.40;;;;;;4764051;30;20192;-85
2023/01/09 14:07:21;;;;;;;4.90;1.45;;;18.40;55.30;;;;;;4781603;30;20195;-85
2023/01/09 14:10:14;;;;;;;6.60;1.75;;;18.40;55.50;;;;;;4774979;29;20190;-84
2023/01/09 14:12:56;;;;;;;4.63;1.48;;;18.40;55.40;;;;;;4815667;29;20198;-84
2023/01/09 14:15:40;;;;;;;4.53;1.63;;;18.40;55.30;;;;;;4817370;29;20221;-86
2023/01/09 14:18:21;;;;;;;4.53;1.55;;;18.40;55.40;;;;;;4832971;29;20188;-85
2023/01/09 14:20:53;;;;;;;3.60;1.75;;;18.40;55.30;;;;;;4834536;29;20189;-84
2023/01/09 14:23:33;;;;;;;3.72;1.70;;;18.40;55.40;;;;;;4831531;29;20197;-84
2023/01/09 14:26:04;;;;;;;3.90;1.90;;;18.40;55.30;;;;;;4832921;29;20269;-85
2023/01/09 14:28:35;;;;;;;4.57;1.63;;;18.40;55.40;;;;;;4810212;29;20193;-85
2023/01/09 14:31:07;;;;;;;3.05;1.50;;;18.30;55.30;;;;;;4853498;29;20646;-85
2023/01/09 14:33:35;;;;;;;3.28;1.67;;;18.30;55.10;;;;;;4868057;29;20791;-85
2023/01/09 14:36:20;;;;;;;2.03;1.60;;;18.40;55.40;;;;;;4863953;29;20253;-84